チャーチル の空港の天気 - METARとTAF

チャーチル空港 ( CYYQ / YYQ ) - カナダ マニトバ州Churchill
飛行場実況気象(Metar)
観測時間10/22 06:00 CDT (10/22 11:00 UTC)
風向・風速西 6m/s 瞬間風速9m/s
視程10km以上
天気現象弱い雪 低い地吹雪
少しの雲 雲底高度 1160m
全天の8割程度の雲 雲底高度 3660m
気温-5℃
湿度86%
気圧1015hPa
METARCYYQ 221100Z 27012G18KT 15SM -SN DRSN FEW038 BKN120 M05/M07 A2996 RMK SC2AC5 SLP150
過去の天気等 Google飛行場航空写真 Wunderground天気予報

過去48時間のMETAR

飛行場予報(TAF)
発表時間: 10/22 05:15 CDT (10/22 10:15 UTC)
予報対象時間: 22日5時 CDT ~ 23日1時 CDT
風向・風速西 6m/s
視程10km以上
少しの雲 雲底高度 610m
全天の8割程度の雲 雲底高度 3050m
全天の8割程度の雲 雲底高度 7620m
22日5時 CDT ~ 22日13時 CDT に一時的に
視程8050m
天気現象弱い雪
全天の8割程度の雲 雲底高度 610m
全天の8割程度の雲 雲底高度 3050m
全天の8割程度の雲 雲底高度 7620m
22日13時 CDT から
風向・風速西北西 8m/s
視程10km以上
天気現象弱い雪
全天の4割程度の雲 雲底高度 370m
全天を覆う雲 雲底高度 760m
22日13時 CDT ~ 23日1時 CDT に一時的に
視程6440m
天気現象弱い雪
全天の4割程度の雲 雲底高度 240m
全天を覆う雲 雲底高度 370m
TAF AMD CYYQ 221015Z 2210/2306 28012KT P6SM FEW020 BKN100 BKN250
TEMPO 2210/2218 5SM -SN BKN020 BKN100 BKN250
FM221800 30015KT P6SM -SN SCT012 OVC025
TEMPO 2218/2306 4SM -SN SCT008 OVC012 RMK NXT FCST BY 221200Z